createdAt,value
2023-03-06T00:00:38.228Z,88.10
2023-03-06T00:03:07.562Z,87.98
2023-03-06T00:05:36.271Z,87.32
2023-03-06T00:08:05.271Z,87.09
2023-03-06T00:10:35.828Z,86.97
2023-03-06T00:13:08.271Z,87.05
2023-03-06T00:15:36.946Z,87.20
2023-03-06T00:18:07.278Z,87.13
2023-03-06T00:20:36.954Z,87.40
2023-03-06T00:23:05.631Z,87.47
2023-03-06T00:25:38.741Z,87.56
2023-03-06T00:28:07.754Z,87.36
2023-03-06T00:30:37.781Z,87.38
2023-03-06T00:33:06.478Z,87.56
2023-03-06T00:35:35.163Z,87.64
2023-03-06T00:38:03.821Z,87.82
2023-03-06T00:40:35.369Z,87.94
2023-03-06T00:43:03.965Z,87.91
2023-03-06T00:45:32.804Z,87.87
2023-03-06T00:48:01.612Z,88.01
2023-03-06T00:50:30.458Z,87.73
2023-03-06T00:53:01.568Z,87.60
2023-03-06T00:55:31.227Z,87.60
2023-03-06T00:58:01.309Z,87.76
2023-03-06T01:00:30.075Z,87.62
2023-03-06T01:02:58.780Z,87.66
2023-03-06T01:05:27.594Z,87.56
2023-03-06T01:07:56.262Z,87.66
2023-03-06T01:10:25.213Z,87.68
2023-03-06T01:12:53.973Z,87.69
2023-03-06T01:15:24.543Z,87.46
2023-03-06T01:17:54.517Z,87.34
2023-03-06T01:20:23.841Z,87.59
2023-03-06T01:22:56.623Z,87.82
2023-03-06T01:25:27.798Z,88.04
2023-03-06T01:27:56.509Z,87.88
2023-03-06T01:30:27.018Z,87.69
2023-03-06T01:32:57.902Z,87.70
2023-03-06T01:35:26.814Z,87.59
2023-03-06T01:37:55.952Z,87.22
2023-03-06T01:40:24.898Z,87.20
2023-03-06T01:42:53.698Z,87.42
2023-03-06T01:46:23.874Z,87.48
2023-03-06T01:48:58.902Z,87.53
2023-03-06T01:51:33.365Z,87.28
2023-03-06T01:54:08.707Z,87.15
2023-03-06T01:56:38.169Z,86.97
2023-03-06T01:59:08.760Z,86.82
2023-03-06T02:01:40.915Z,86.79
2023-03-06T02:04:11.991Z,86.87
2023-03-06T02:06:44.266Z,86.80
2023-03-06T02:09:14.296Z,86.68
2023-03-06T02:11:44.366Z,86.37
2023-03-06T02:14:16.303Z,86.26
2023-03-06T02:16:47.315Z,86.26
2023-03-06T02:19:33.670Z,86.42
2023-03-06T02:22:02.463Z,86.50
2023-03-06T02:24:41.699Z,86.36
2023-03-06T02:27:14.401Z,86.63
2023-03-06T02:29:43.762Z,86.46
2023-03-06T02:32:12.515Z,86.41
2023-03-06T02:34:57.487Z,86.38
2023-03-06T02:37:29.693Z,86.60
2023-03-06T02:40:12.290Z,86.30
2023-03-06T02:42:48.262Z,86.23
2023-03-06T02:45:24.706Z,86.45
2023-03-06T02:47:53.429Z,86.27
2023-03-06T02:50:22.350Z,86.14
2023-03-06T02:52:50.958Z,86.02
2023-03-06T02:55:20.094Z,85.94
2023-03-06T02:57:50.393Z,86.06
2023-03-06T03:00:20.950Z,85.96
2023-03-06T03:02:49.779Z,85.83
2023-03-06T03:05:18.666Z,85.78
2023-03-06T03:07:52.412Z,85.87
2023-03-06T03:10:22.401Z,85.84
2023-03-06T03:12:53.129Z,85.94
2023-03-06T03:15:22.524Z,86.07
2023-03-06T03:17:51.238Z,85.72
2023-03-06T03:20:22.561Z,85.44
2023-03-06T03:22:55.078Z,85.53
2023-03-06T03:25:25.909Z,85.39
2023-03-06T03:27:58.753Z,85.08
2023-03-06T03:30:28.207Z,85.04
2023-03-06T03:32:57.022Z,84.95
2023-03-06T03:35:26.754Z,84.82
2023-03-06T03:37:55.502Z,84.65
2023-03-06T03:40:24.653Z,84.31
2023-03-06T03:42:53.698Z,84.15
2023-03-06T03:45:24.250Z,84.46
2023-03-06T03:47:53.013Z,84.31
2023-03-06T03:50:22.024Z,84.55
2023-03-06T03:52:51.042Z,84.44
2023-03-06T03:55:20.155Z,84.29
2023-03-06T03:57:48.847Z,84.42
2023-03-06T04:00:18.894Z,84.51
2023-03-06T04:03:03.565Z,84.37
2023-03-06T04:05:41.678Z,84.14
2023-03-06T04:08:11.610Z,84.29
2023-03-06T04:10:43.776Z,84.00
2023-03-06T04:13:14.406Z,84.17
2023-03-06T04:15:45.600Z,84.16
2023-03-06T04:18:16.603Z,84.36
2023-03-06T04:20:45.902Z,84.38
2023-03-06T04:23:15.422Z,84.25
2023-03-06T04:25:44.705Z,84.28
2023-03-06T04:28:15.004Z,84.69
2023-03-06T04:30:44.112Z,84.40
2023-03-06T04:33:13.072Z,84.46
2023-03-06T04:35:43.895Z,84.67
2023-03-06T04:38:18.550Z,84.62
2023-03-06T04:40:49.684Z,84.76
2023-03-06T04:43:18.717Z,84.81
2023-03-06T04:45:47.576Z,84.96
2023-03-06T04:48:19.788Z,85.03
2023-03-06T04:50:50.192Z,84.90
2023-03-06T04:53:19.679Z,84.92
2023-03-06T04:55:48.521Z,84.85
2023-03-06T04:58:17.289Z,85.14
2023-03-06T05:00:45.956Z,85.04
2023-03-06T05:03:15.509Z,85.06
2023-03-06T05:05:44.312Z,85.16
2023-03-06T05:08:16.977Z,85.08
2023-03-06T05:10:47.055Z,85.19
2023-03-06T05:13:15.771Z,85.21
2023-03-06T05:15:44.546Z,85.15
2023-03-06T05:18:13.258Z,85.30
2023-03-06T05:20:41.855Z,84.98
2023-03-06T05:23:10.823Z,84.85
2023-03-06T05:25:42.360Z,84.53
2023-03-06T05:28:11.121Z,84.69
2023-03-06T05:30:39.874Z,84.73
2023-03-06T05:33:08.687Z,84.92
2023-03-06T05:35:37.392Z,84.55
2023-03-06T05:38:06.190Z,84.30
2023-03-06T05:40:34.930Z,84.70
2023-03-06T05:43:05.065Z,84.69
2023-03-06T05:45:33.762Z,84.78
2023-03-06T05:48:02.742Z,84.86
2023-03-06T05:50:31.410Z,84.35
2023-03-06T05:53:00.204Z,84.33
2023-03-06T05:55:28.966Z,84.42
2023-03-06T05:57:57.651Z,84.58
2023-03-06T06:00:28.861Z,84.24
2023-03-06T06:02:57.609Z,84.08
2023-03-06T06:05:26.256Z,84.36
2023-03-06T06:07:54.980Z,84.37
2023-03-06T06:10:23.710Z,84.24
2023-03-06T06:12:53.277Z,84.36
2023-03-06T06:15:21.963Z,84.08
2023-03-06T06:17:51.997Z,83.72
2023-03-06T06:20:21.115Z,83.53
2023-03-06T06:22:49.827Z,83.59
2023-03-06T06:25:19.153Z,83.55
2023-03-06T06:27:47.800Z,83.36
2023-03-06T06:30:16.984Z,83.04
2023-03-06T06:32:45.698Z,82.83
2023-03-06T06:35:15.824Z,82.94
2023-03-06T06:37:44.609Z,83.27
2023-03-06T06:40:14.559Z,83.22
2023-03-06T06:42:44.088Z,82.72
2023-03-06T06:45:14.105Z,82.82
2023-03-06T06:47:43.582Z,82.44
2023-03-06T06:50:15.789Z,82.24
2023-03-06T06:52:44.869Z,82.77
2023-03-06T06:55:14.614Z,81.87
2023-03-06T06:57:43.970Z,81.73
2023-03-06T07:00:16.952Z,82.06
2023-03-06T07:02:49.187Z,81.44
2023-03-06T07:05:21.793Z,82.09
2023-03-06T07:07:51.466Z,82.26
2023-03-06T07:10:21.172Z,82.14
2023-03-06T07:12:50.183Z,82.26
2023-03-06T07:15:19.931Z,82.56
2023-03-06T07:17:50.173Z,82.65
2023-03-06T07:20:21.960Z,82.75
2023-03-06T07:22:51.962Z,82.23
2023-03-06T07:25:21.358Z,81.70
2023-03-06T07:27:54.349Z,81.99
2023-03-06T07:30:24.517Z,81.53
2023-03-06T07:35:34.193Z,81.19
2023-03-06T07:38:03.346Z,80.95
2023-03-06T07:40:32.007Z,81.14
2023-03-06T07:43:16.951Z,80.99
2023-03-06T07:45:58.491Z,80.81
2023-03-06T07:48:27.467Z,80.65
2023-03-06T07:51:03.221Z,81.22
2023-03-06T07:53:32.400Z,80.85
2023-03-06T07:56:01.472Z,80.45
2023-03-06T07:58:30.097Z,80.27
2023-03-06T08:00:58.815Z,80.35
2023-03-06T08:03:27.613Z,80.33
2023-03-06T08:05:56.268Z,79.77
2023-03-06T08:08:26.333Z,79.51
2023-03-06T08:10:55.056Z,80.03
2023-03-06T08:13:23.713Z,80.05
2023-03-06T08:15:52.440Z,79.15
2023-03-06T08:18:21.281Z,79.04
2023-03-06T08:20:50.061Z,80.10
2023-03-06T08:23:18.781Z,79.53
2023-03-06T08:25:57.928Z,79.91
2023-03-06T08:28:26.974Z,79.94
2023-03-06T08:30:55.770Z,79.91
2023-03-06T08:33:25.501Z,79.04
2023-03-06T08:35:54.313Z,78.63
2023-03-06T08:38:23.333Z,79.06
2023-03-06T08:40:53.390Z,79.24
2023-03-06T08:43:22.256Z,79.77
2023-03-06T08:45:54.309Z,80.11
2023-03-06T08:48:23.021Z,79.88
2023-03-06T08:50:52.413Z,79.97
2023-03-06T08:53:30.465Z,79.03
2023-03-06T08:56:08.442Z,78.40
2023-03-06T08:58:37.150Z,78.78
2023-03-06T09:01:07.469Z,79.04
2023-03-06T09:03:36.246Z,79.02
2023-03-06T09:06:05.016Z,78.65
2023-03-06T09:08:33.861Z,78.11
2023-03-06T09:11:02.554Z,77.86
2023-03-06T09:13:32.559Z,77.34
2023-03-06T09:16:01.168Z,77.61
2023-03-06T09:18:30.382Z,76.46
2023-03-06T09:20:59.164Z,75.94
2023-03-06T09:23:28.051Z,75.67
2023-03-06T09:25:59.457Z,77.02
2023-03-06T09:28:28.742Z,76.73
2023-03-06T09:30:59.387Z,76.96
2023-03-06T09:33:33.350Z,78.19
2023-03-06T09:36:03.778Z,78.16
2023-03-06T09:38:32.718Z,77.68
2023-03-06T09:43:41.569Z,77.96
2023-03-06T09:46:24.274Z,78.35
2023-03-06T09:49:10.418Z,77.29
2023-03-06T09:51:56.074Z,76.72
2023-03-06T09:54:38.005Z,75.00
2023-03-06T09:57:18.602Z,76.13
2023-03-06T09:59:52.149Z,75.03
2023-03-06T10:02:32.608Z,74.71
2023-03-06T10:05:06.918Z,76.15
2023-03-06T10:07:47.418Z,75.97
2023-03-06T10:10:27.301Z,76.20
2023-03-06T10:13:05.083Z,75.92
2023-03-06T10:15:38.452Z,77.60
2023-03-06T10:18:18.200Z,76.24
2023-03-06T10:20:55.669Z,77.32
2023-03-06T10:23:46.199Z,76.78
2023-03-06T10:26:20.711Z,75.73
2023-03-06T10:29:04.839Z,76.01
2023-03-06T10:31:36.196Z,75.92
2023-03-06T10:34:22.756Z,75.63
2023-03-06T10:36:52.160Z,76.17
2023-03-06T10:39:24.643Z,77.78
2023-03-06T10:41:54.662Z,76.11
2023-03-06T10:44:25.719Z,78.53
2023-03-06T10:46:56.364Z,76.57
2023-03-06T10:49:35.913Z,75.39
2023-03-06T10:52:07.877Z,78.63
2023-03-06T10:54:40.238Z,77.96
2023-03-06T10:57:28.696Z,79.25
2023-03-06T11:00:00.628Z,77.78
2023-03-06T11:02:44.729Z,77.13
2023-03-06T11:05:25.340Z,76.75
2023-03-06T11:08:01.168Z,75.34
2023-03-06T11:10:35.678Z,74.53
2023-03-06T11:13:23.812Z,76.11
2023-03-06T11:16:01.772Z,75.80
2023-03-06T11:18:40.612Z,74.71
2023-03-06T11:21:33.699Z,75.65
2023-03-06T11:24:17.052Z,78.57
2023-03-06T11:26:52.575Z,78.09
2023-03-06T11:29:38.689Z,78.17
2023-03-06T11:32:18.384Z,79.19
2023-03-06T11:35:00.163Z,76.85
2023-03-06T11:37:48.940Z,77.53
2023-03-06T11:40:31.671Z,78.07
2023-03-06T11:43:16.222Z,77.13
2023-03-06T11:45:50.034Z,77.34
2023-03-06T11:48:26.025Z,76.62
2023-03-06T11:51:01.164Z,78.19
2023-03-06T11:53:35.602Z,79.11
2023-03-06T11:56:22.978Z,75.82
2023-03-06T11:59:17.700Z,76.88
2023-03-06T12:02:00.722Z,78.51
2023-03-06T12:04:57.842Z,77.63
2023-03-06T12:07:33.824Z,76.72
2023-03-06T12:10:20.682Z,76.91
2023-03-06T12:13:27.440Z,77.86
2023-03-06T12:16:36.063Z,78.72
2023-03-06T12:19:30.495Z,79.52
2023-03-06T12:22:22.566Z,79.55
2023-03-06T12:25:27.024Z,79.13
2023-03-06T12:28:12.932Z,80.47
2023-03-06T12:31:09.311Z,78.89
2023-03-06T12:33:51.978Z,79.09
2023-03-06T12:36:40.510Z,79.13
2023-03-06T12:39:19.078Z,78.52
2023-03-06T12:42:17.890Z,78.24
2023-03-06T12:45:13.957Z,78.08
2023-03-06T12:47:47.667Z,76.27
2023-03-06T12:50:24.703Z,77.06
2023-03-06T12:52:55.199Z,75.72
2023-03-06T12:55:28.666Z,76.96
2023-03-06T12:58:52.116Z,76.16
2023-03-06T13:02:16.189Z,77.09
2023-03-06T13:05:05.112Z,78.21
2023-03-06T13:07:55.760Z,77.43
2023-03-06T13:10:30.519Z,77.71
2023-03-06T13:13:05.030Z,76.68
2023-03-06T13:15:40.381Z,77.41
2023-03-06T13:19:03.597Z,78.07
2023-03-06T13:22:16.567Z,79.74
2023-03-06T13:24:45.621Z,79.74
2023-03-06T13:27:47.623Z,80.93
2023-03-06T13:30:42.723Z,80.62
2023-03-06T13:33:59.600Z,79.72
2023-03-06T13:36:32.277Z,78.94
2023-03-06T13:39:09.781Z,80.30
2023-03-06T13:42:00.578Z,79.95
2023-03-06T13:44:51.337Z,80.46
2023-03-06T13:48:02.779Z,80.96
2023-03-06T13:50:47.698Z,81.65
2023-03-06T13:54:17.919Z,80.63
2023-03-06T13:57:24.410Z,80.17
2023-03-06T14:00:45.547Z,79.84
2023-03-06T14:03:58.471Z,80.40
2023-03-06T14:07:03.973Z,80.13
2023-03-06T14:09:38.562Z,80.15
2023-03-06T14:12:16.883Z,80.51
2023-03-06T14:14:52.231Z,81.47
2023-03-06T14:17:29.910Z,81.44
2023-03-06T14:20:13.604Z,81.63
2023-03-06T14:22:42.791Z,82.14
2023-03-06T14:25:21.888Z,82.34
2023-03-06T14:27:54.982Z,82.46
2023-03-06T14:30:26.807Z,82.37
2023-03-06T14:32:58.737Z,81.90
2023-03-06T14:35:34.396Z,81.82
2023-03-06T14:38:08.121Z,83.45
2023-03-06T14:40:43.918Z,84.11
2023-03-06T14:43:21.583Z,83.66
2023-03-06T14:45:57.599Z,83.88
2023-03-06T14:48:38.556Z,83.41
2023-03-06T14:51:18.372Z,82.59
2023-03-06T14:53:50.743Z,82.18
2023-03-06T14:56:22.571Z,81.68
2023-03-06T14:59:00.072Z,81.75
2023-03-06T15:01:38.291Z,81.46
2023-03-06T15:04:21.108Z,81.76
2023-03-06T15:06:51.766Z,82.09
2023-03-06T15:09:27.510Z,81.10
2023-03-06T15:12:01.363Z,80.79
2023-03-06T15:14:37.322Z,81.08
2023-03-06T15:17:26.375Z,80.47
2023-03-06T15:19:58.053Z,81.08
2023-03-06T15:22:31.870Z,80.30
2023-03-06T15:25:21.548Z,80.92
2023-03-06T15:27:53.902Z,81.14
2023-03-06T15:30:27.695Z,81.92
2023-03-06T15:33:23.803Z,81.18
2023-03-06T15:35:58.012Z,82.17
2023-03-06T15:38:37.168Z,82.64
2023-03-06T15:41:12.711Z,82.86
2023-03-06T15:43:41.894Z,82.20
2023-03-06T15:46:12.608Z,82.79
2023-03-06T15:48:41.366Z,83.15
2023-03-06T15:51:10.766Z,82.20
2023-03-06T15:53:41.060Z,82.08
2023-03-06T15:56:13.224Z,82.12
2023-03-06T15:58:42.956Z,82.76
2023-03-06T16:01:17.768Z,82.55
2023-03-06T16:03:47.196Z,82.60
2023-03-06T16:06:19.604Z,82.82
2023-03-06T16:08:49.730Z,83.85
2023-03-06T16:11:35.417Z,84.82
2023-03-06T16:14:21.473Z,85.20
2023-03-06T16:16:51.322Z,85.33
2023-03-06T16:19:27.130Z,85.90
2023-03-06T16:21:57.120Z,85.84
2023-03-06T16:24:27.530Z,85.66
2023-03-06T16:27:01.895Z,85.21
2023-03-06T16:29:31.259Z,85.41
2023-03-06T16:32:01.904Z,83.85
2023-03-06T16:34:30.717Z,83.91
2023-03-06T16:36:59.578Z,84.15
2023-03-06T16:39:29.673Z,84.89
2023-03-06T16:41:58.297Z,85.72
2023-03-06T16:44:26.939Z,85.94
2023-03-06T16:46:55.537Z,86.75
2023-03-06T16:49:26.591Z,86.83
2023-03-06T16:51:56.368Z,87.21
2023-03-06T16:54:26.354Z,86.86
2023-03-06T16:56:56.484Z,86.65
2023-03-06T16:59:28.091Z,86.75
2023-03-06T17:01:57.354Z,86.99
2023-03-06T17:04:26.019Z,87.19
2023-03-06T17:06:54.689Z,87.37
2023-03-06T17:09:23.563Z,87.38
2023-03-06T17:11:52.228Z,87.42
2023-03-06T17:14:22.279Z,87.27
2023-03-06T17:16:50.957Z,87.63
2023-03-06T17:19:19.636Z,87.80
2023-03-06T17:21:48.242Z,87.71
2023-03-06T17:24:17.618Z,87.94
2023-03-06T17:26:47.799Z,87.59
2023-03-06T17:29:16.516Z,87.19
2023-03-06T17:31:48.175Z,87.57
2023-03-06T17:34:16.809Z,87.36
2023-03-06T17:36:45.511Z,86.71
2023-03-06T17:39:14.183Z,86.45
2023-03-06T17:41:44.665Z,86.42
2023-03-06T17:44:16.496Z,86.34
2023-03-06T17:46:46.620Z,86.40
2023-03-06T17:49:16.454Z,87.09
2023-03-06T17:51:45.367Z,87.08
2023-03-06T17:54:13.982Z,87.42
2023-03-06T17:56:43.043Z,87.39
2023-03-06T17:59:15.148Z,87.08
2023-03-06T18:01:46.865Z,87.08
2023-03-06T18:04:17.460Z,87.33
2023-03-06T18:06:46.238Z,87.60
2023-03-06T18:09:15.255Z,87.01
2023-03-06T18:11:43.945Z,86.96
2023-03-06T18:14:12.617Z,86.68
2023-03-06T18:16:41.411Z,86.81
2023-03-06T18:19:12.929Z,87.09
2023-03-06T18:21:41.782Z,86.62
2023-03-06T18:24:12.391Z,86.95
2023-03-06T18:26:43.394Z,87.18
2023-03-06T18:29:14.218Z,87.55
2023-03-06T18:31:44.850Z,87.14
2023-03-06T18:34:22.493Z,87.22
2023-03-06T18:36:52.907Z,87.37
2023-03-06T18:39:22.524Z,86.94
2023-03-06T18:41:51.781Z,86.76
2023-03-06T18:44:20.617Z,86.76
2023-03-06T18:46:49.504Z,87.17
2023-03-06T18:49:19.623Z,86.87
2023-03-06T18:51:50.439Z,87.01
2023-03-06T18:54:19.391Z,86.63
2023-03-06T18:56:48.020Z,86.50
2023-03-06T18:59:18.929Z,86.40
2023-03-06T19:01:49.002Z,86.40
2023-03-06T19:04:19.073Z,86.16
2023-03-06T19:06:47.884Z,86.13
2023-03-06T19:09:16.515Z,86.17
2023-03-06T19:11:46.951Z,86.29
2023-03-06T19:14:15.931Z,86.39
2023-03-06T19:16:44.806Z,86.34
2023-03-06T19:19:13.458Z,86.49
2023-03-06T19:21:43.598Z,86.06
2023-03-06T19:24:14.057Z,86.06
2023-03-06T19:26:42.822Z,85.92
2023-03-06T19:29:11.452Z,85.72
2023-03-06T19:31:40.138Z,85.56
2023-03-06T19:34:08.801Z,85.48
2023-03-06T19:36:38.896Z,85.41
2023-03-06T19:39:09.619Z,85.98
2023-03-06T19:41:39.110Z,85.99
2023-03-06T19:44:07.754Z,85.89
2023-03-06T19:46:37.720Z,86.43
2023-03-06T19:49:11.778Z,86.23
2023-03-06T19:51:40.938Z,86.14
2023-03-06T19:54:12.623Z,86.27
2023-03-06T19:56:41.609Z,86.40
2023-03-06T19:59:10.288Z,86.45
2023-03-06T20:01:39.812Z,86.50
2023-03-06T20:04:08.974Z,86.23
2023-03-06T20:06:38.903Z,86.24
2023-03-06T20:09:12.411Z,86.48
2023-03-06T20:11:41.100Z,86.74
2023-03-06T20:14:11.366Z,86.91
2023-03-06T20:16:40.581Z,86.82
2023-03-06T20:19:09.258Z,87.20
2023-03-06T20:21:38.674Z,87.09
2023-03-06T20:24:10.752Z,87.00
2023-03-06T20:26:39.419Z,87.06
2023-03-06T20:29:08.074Z,86.53
2023-03-06T20:31:37.252Z,86.34
2023-03-06T20:34:06.625Z,86.62
2023-03-06T20:36:40.456Z,86.78
2023-03-06T20:39:14.349Z,87.08
2023-03-06T20:41:44.249Z,86.83
2023-03-06T20:44:17.222Z,87.13
2023-03-06T20:46:46.741Z,86.67
2023-03-06T20:49:15.853Z,87.18
2023-03-06T20:51:44.571Z,87.26
2023-03-06T20:54:17.518Z,87.08
2023-03-06T20:56:50.240Z,86.51
2023-03-06T20:59:19.230Z,86.24
2023-03-06T21:01:48.594Z,86.46
2023-03-06T21:04:17.555Z,86.52
2023-03-06T21:06:50.411Z,86.41
2023-03-06T21:09:20.466Z,86.60
2023-03-06T21:11:49.854Z,85.78
2023-03-06T21:14:18.438Z,86.06
2023-03-06T21:16:47.039Z,85.64
2023-03-06T21:19:15.795Z,85.74
2023-03-06T21:21:44.476Z,85.50
2023-03-06T21:24:13.100Z,85.57
2023-03-06T21:26:43.185Z,85.35
2023-03-06T21:29:11.713Z,85.03
2023-03-06T21:31:41.042Z,84.70
2023-03-06T21:34:11.487Z,84.60
2023-03-06T21:36:40.068Z,83.80
2023-03-06T21:39:09.882Z,84.01
2023-03-06T21:41:39.462Z,83.95
2023-03-06T21:44:09.469Z,84.20
2023-03-06T21:46:38.112Z,84.19
2023-03-06T21:49:07.230Z,84.04
2023-03-06T21:51:35.978Z,84.14
2023-03-06T21:54:04.716Z,83.83
2023-03-06T21:56:33.780Z,83.77
2023-03-06T21:59:02.739Z,83.74
2023-03-06T22:01:32.899Z,84.11
2023-03-06T22:04:01.689Z,83.59
2023-03-06T22:06:32.223Z,83.77
2023-03-06T22:09:02.441Z,83.74
2023-03-06T22:11:34.311Z,83.74
2023-03-06T22:14:03.036Z,83.53
2023-03-06T22:16:34.184Z,83.13
2023-03-06T22:19:02.892Z,83.34
2023-03-06T22:21:31.637Z,83.22
2023-03-06T22:24:00.862Z,83.49
2023-03-06T22:26:30.787Z,83.27
2023-03-06T22:28:59.402Z,83.29
2023-03-06T22:31:29.728Z,84.17
2023-03-06T22:34:01.956Z,83.64
2023-03-06T22:36:32.031Z,82.83
2023-03-06T22:39:05.339Z,83.48
2023-03-06T22:41:33.980Z,83.38
2023-03-06T22:44:03.708Z,83.13
2023-03-06T22:46:33.760Z,83.44
2023-03-06T22:49:05.113Z,83.14
2023-03-06T22:51:33.716Z,83.37
2023-03-06T22:54:02.289Z,83.17
2023-03-06T22:56:31.374Z,82.94
2023-03-06T22:59:00.759Z,82.98
2023-03-06T23:01:31.983Z,83.20
2023-03-06T23:04:05.023Z,83.06
2023-03-06T23:06:36.615Z,83.12
2023-03-06T23:09:08.762Z,83.24
2023-03-06T23:11:56.058Z,83.43
2023-03-06T23:14:43.720Z,83.73
2023-03-06T23:17:33.392Z,83.65
2023-03-06T23:20:22.232Z,83.42
2023-03-06T23:23:09.853Z,83.35
2023-03-06T23:25:45.546Z,83.15
2023-03-06T23:28:14.195Z,83.37
2023-03-06T23:30:43.731Z,83.61
2023-03-06T23:33:12.786Z,83.31
2023-03-06T23:35:44.226Z,83.73
2023-03-06T23:38:13.233Z,83.22
2023-03-06T23:40:42.780Z,83.56
2023-03-06T23:43:11.418Z,83.74
2023-03-06T23:45:40.087Z,83.46
2023-03-06T23:48:08.935Z,83.40
2023-03-06T23:50:42.563Z,83.30
2023-03-06T23:53:11.228Z,83.81
2023-03-06T23:55:42.849Z,83.45
2023-03-06T23:58:12.136Z,83.66
